Skip Navigation LinksHome page > Weather > Current weather Skip Navigation Links

Current Weather

Unknown weather station OMDB

For information only: do not use for flight planning or navigation.
Latest weather
Observation time Friday, October 30, 2020 10:00 PM UTC
Local time Friday, October 30, 2020 10:42 PM UTC
Flight conditions Visual Meteorological Conditions
Winds
Wind direction East-Southeast (110°)
Wind speed 5 mph
Visibility 6.2 mi.
Sky condition
Ceiling unlimited
Sky clear
Temperature 77°F
Dewpoint 68°F
Altimeter 29.94 in.Hg
Derived measurements
Relative humidity 74%
Heat index 77°F
Density altitude 1449 ft.
Remarks
Ceiling and visibility OK.
No significant changes expected in the next two hours.
METAR OMDB 302200Z 11004KT CAVOK 25/20 Q1014 NOSIG

Settings

Location code

InnerDrive.Weather 4.0.6770.0 Release CLR 4.0.30319.42000
Copyright ©2018 Inner Drive Technology. All rights reserved. Portions Copyright ©1986-2018 David Braverman.

Find weather

Site navigation


Skip Navigation Links

Place info

Page info

PayPal - The safer, easier way to pay online!

Return home.

Copyright ©2020 Inner Drive Technology. Purveyors of fine, hand-crafted computer software. Page printed 2020-10-30T22:42:33 UTC.